createdAt,value
2018-04-17T00:07:49.901Z,0
2018-04-17T00:18:03.815Z,0
2018-04-17T00:28:18.754Z,0
2018-04-17T00:38:32.748Z,0
2018-04-17T00:48:48.167Z,0
2018-04-17T00:59:03.700Z,0
2018-04-17T01:09:19.413Z,0
2018-04-17T01:19:33.812Z,0
2018-04-17T01:29:47.989Z,0
2018-04-17T01:40:03.484Z,0
2018-04-17T01:50:18.152Z,0
2018-04-17T02:00:33.610Z,0
2018-04-17T02:10:48.468Z,0
2018-04-17T02:21:03.153Z,0
2018-04-17T02:31:17.401Z,0
2018-04-17T02:41:32.042Z,0
2018-04-17T02:51:46.549Z,0
2018-04-17T03:02:01.013Z,0
2018-04-17T03:12:15.534Z,0
2018-04-17T03:22:29.241Z,0
2018-04-17T03:32:43.134Z,0
2018-04-17T03:42:57.859Z,0
2018-04-17T03:53:12.447Z,4
2018-04-17T04:03:26.851Z,12
2018-04-17T04:13:41.344Z,60
2018-04-17T04:23:56.704Z,236
2018-04-17T04:34:11.299Z,636
2018-04-17T04:44:26.360Z,1232
2018-04-17T04:54:40.565Z,2004
2018-04-17T05:04:54.670Z,2884
2018-04-17T05:15:10.206Z,3860
2018-04-17T05:25:24.080Z,4756
2018-04-17T05:35:37.795Z,5836
2018-04-17T05:45:52.206Z,6884
2018-04-17T05:56:05.909Z,7660
2018-04-17T06:06:20.122Z,8976
2018-04-17T06:16:35.386Z,9684
2018-04-17T06:26:49.481Z,11052
2018-04-17T06:37:04.164Z,13108
2018-04-17T06:47:18.812Z,12304
2018-04-17T06:57:33.110Z,13444
2018-04-17T07:07:48.269Z,23360
2018-04-17T07:18:03.631Z,26976
2018-04-17T07:28:18.393Z,35296
2018-04-17T07:38:34.171Z,36480
2018-04-17T07:48:48.573Z,41664
2018-04-17T07:59:03.283Z,40608
2018-04-17T08:09:18.177Z,40224
2018-04-17T08:19:34.028Z,45088
2018-04-17T08:29:49.043Z,48512
2018-04-17T08:40:04.594Z,53024
2018-04-17T08:50:19.042Z,56480
2018-04-17T09:00:34.708Z,58848
2018-04-17T09:10:48.837Z,58304
2018-04-17T09:21:03.785Z,54816
2018-04-17T09:31:17.844Z,63040
2018-04-17T09:41:32.609Z,61024
2018-04-17T09:51:46.520Z,64960
2018-04-17T10:02:02.151Z,55872
2018-04-17T10:12:17.425Z,71072
2018-04-17T10:22:32.942Z,67424
2018-04-17T10:32:48.146Z,69184
2018-04-17T10:43:02.551Z,78240
2018-04-17T10:53:17.470Z,82208
2018-04-17T11:03:33.372Z,83456
2018-04-17T11:13:48.801Z,82496
2018-04-17T11:24:03.394Z,73728
2018-04-17T11:34:18.747Z,80192
2018-04-17T11:44:33.390Z,78048
2018-04-17T11:54:48.431Z,78208
2018-04-17T12:05:03.007Z,81728
2018-04-17T12:15:18.816Z,86752
2018-04-17T12:25:33.809Z,82304
2018-04-17T12:35:49.050Z,82496
2018-04-17T12:46:04.782Z,83264
2018-04-17T12:56:19.020Z,67296
2018-04-17T13:06:33.967Z,76768
2018-04-17T13:16:49.258Z,76064
2018-04-17T13:27:03.251Z,73344
2018-04-17T13:37:17.285Z,70240
2018-04-17T13:47:32.301Z,73056
2018-04-17T13:57:46.227Z,68864
2018-04-17T14:08:01.101Z,61536
2018-04-17T14:18:15.176Z,55200
2018-04-17T14:28:29.896Z,33120
2018-04-17T14:38:43.926Z,52096
2018-04-17T14:48:58.659Z,37856
2018-04-17T14:59:12.528Z,48640
2018-04-17T15:09:26.648Z,42976
2018-04-17T15:19:41.864Z,33600
2018-04-17T15:29:56.708Z,22464
2018-04-17T15:40:10.818Z,20864
2018-04-17T15:50:25.544Z,27072
2018-04-17T16:00:39.655Z,30656
2018-04-17T16:10:54.266Z,21984
2018-04-17T16:21:09.107Z,18976
2018-04-17T16:31:24.202Z,17920
2018-04-17T16:41:39.004Z,15192
2018-04-17T16:51:54.049Z,17664
2018-04-17T17:02:09.322Z,15456
2018-04-17T17:12:23.396Z,19360
2018-04-17T17:22:37.803Z,9884
2018-04-17T17:32:53.021Z,8968
2018-04-17T17:43:07.751Z,6572
2018-04-17T17:53:22.218Z,4360
2018-04-17T18:03:36.383Z,2680
2018-04-17T18:13:51.295Z,1432
2018-04-17T18:24:06.462Z,672
2018-04-17T18:34:21.982Z,240
2018-04-17T18:44:36.751Z,76
2018-04-17T18:54:52.511Z,16
2018-04-17T19:05:06.522Z,0
2018-04-17T19:15:21.729Z,0
2018-04-17T19:25:37.175Z,0
2018-04-17T19:35:51.754Z,0
2018-04-17T19:46:05.578Z,0
2018-04-17T19:56:20.344Z,0
2018-04-17T20:06:35.633Z,0
2018-04-17T20:16:51.210Z,0
2018-04-17T20:27:05.193Z,0
2018-04-17T20:37:20.961Z,0
2018-04-17T20:47:34.675Z,0
2018-04-17T20:57:50.204Z,0
2018-04-17T21:08:05.298Z,0
2018-04-17T21:18:20.287Z,0
2018-04-17T21:28:34.777Z,0
2018-04-17T21:38:49.547Z,0
2018-04-17T21:49:03.816Z,0
2018-04-17T21:59:19.493Z,0
2018-04-17T22:09:34.064Z,0
2018-04-17T22:19:48.268Z,0
2018-04-17T22:30:02.516Z,0
2018-04-17T22:40:16.277Z,0
2018-04-17T22:50:31.655Z,0
2018-04-17T23:00:45.650Z,0
2018-04-17T23:11:01.292Z,0
2018-04-17T23:21:16.017Z,0
2018-04-17T23:31:30.934Z,0
2018-04-17T23:41:45.559Z,0
2018-04-17T23:51:59.505Z,0
